createdAt,value
2022-08-25T00:00:39.627Z,19.73
2022-08-25T00:01:39.611Z,19.66
2022-08-25T00:02:39.696Z,19.65
2022-08-25T00:03:39.660Z,19.60
2022-08-25T00:04:39.613Z,19.55
2022-08-25T00:05:39.579Z,19.53
2022-08-25T00:06:39.563Z,19.50
2022-08-25T00:07:39.549Z,19.47
2022-08-25T00:08:39.586Z,19.43
2022-08-25T00:09:39.524Z,19.42
2022-08-25T00:10:39.530Z,19.40
2022-08-25T00:11:39.505Z,19.39
2022-08-25T00:12:39.502Z,19.40
2022-08-25T00:13:39.504Z,19.42
2022-08-25T00:14:39.480Z,19.40
2022-08-25T00:15:39.502Z,19.42
2022-08-25T00:16:39.459Z,19.42
2022-08-25T00:17:39.442Z,19.42
2022-08-25T00:18:39.455Z,19.42
2022-08-25T00:19:39.422Z,19.46
2022-08-25T00:20:39.418Z,19.46
2022-08-25T00:21:39.400Z,19.47
2022-08-25T00:22:39.397Z,19.50
2022-08-25T00:23:39.407Z,19.51
2022-08-25T00:24:39.373Z,19.51
2022-08-25T00:25:39.384Z,19.51
2022-08-25T00:26:39.356Z,19.53
2022-08-25T00:27:39.338Z,19.54
2022-08-25T00:28:39.348Z,19.54
2022-08-25T00:29:39.316Z,19.54
2022-08-25T00:30:39.312Z,19.55
2022-08-25T00:31:39.379Z,19.55
2022-08-25T00:32:39.293Z,19.58
2022-08-25T00:33:39.294Z,19.60
2022-08-25T00:34:39.270Z,19.61
2022-08-25T00:35:39.255Z,19.60
2022-08-25T00:36:39.250Z,19.61
2022-08-25T00:37:39.230Z,19.63
2022-08-25T00:38:39.246Z,19.61
2022-08-25T00:39:39.212Z,19.65
2022-08-25T00:40:39.206Z,19.66
2022-08-25T00:41:39.191Z,19.66
2022-08-25T00:42:39.203Z,19.68
2022-08-25T00:43:39.192Z,19.66
2022-08-25T00:44:39.167Z,19.69
2022-08-25T00:45:39.152Z,19.69
2022-08-25T00:46:39.179Z,19.68
2022-08-25T00:47:39.129Z,19.69
2022-08-25T00:48:39.142Z,19.70
2022-08-25T00:49:39.112Z,19.70
2022-08-25T00:50:39.103Z,19.70
2022-08-25T00:51:39.089Z,19.72
2022-08-25T00:52:39.080Z,19.72
2022-08-25T00:53:39.087Z,19.69
2022-08-25T00:54:39.069Z,19.68
2022-08-25T00:55:39.047Z,19.65
2022-08-25T00:56:39.041Z,19.61
2022-08-25T00:57:39.025Z,19.60
2022-08-25T00:58:39.034Z,19.57
2022-08-25T00:59:39.003Z,19.54
2022-08-25T01:00:38.996Z,19.55
2022-08-25T01:01:39.109Z,19.50
2022-08-25T01:02:39.114Z,19.50
2022-08-25T01:03:38.980Z,19.48
2022-08-25T01:04:38.958Z,19.46
2022-08-25T01:05:38.944Z,19.47
2022-08-25T01:06:38.936Z,19.43
2022-08-25T01:07:38.922Z,19.39
2022-08-25T01:08:38.944Z,19.38
2022-08-25T01:09:38.900Z,19.36
2022-08-25T01:10:38.893Z,19.33
2022-08-25T01:11:38.880Z,19.32
2022-08-25T01:12:38.872Z,19.32
2022-08-25T01:13:38.877Z,19.29
2022-08-25T01:14:38.851Z,19.25
2022-08-25T01:15:38.871Z,19.24
2022-08-25T01:16:38.832Z,19.23
2022-08-25T01:17:38.814Z,19.23
2022-08-25T01:18:38.830Z,19.23
2022-08-25T01:19:38.797Z,19.23
2022-08-25T01:20:38.790Z,19.21
2022-08-25T01:21:38.773Z,19.21
2022-08-25T01:22:38.789Z,19.21
2022-08-25T01:23:38.753Z,19.20
2022-08-25T01:24:38.748Z,19.20
2022-08-25T01:25:38.749Z,19.18
2022-08-25T01:26:38.724Z,19.18
2022-08-25T01:27:38.725Z,19.17
2022-08-25T01:28:38.717Z,19.17
2022-08-25T01:29:38.691Z,19.20
2022-08-25T01:30:38.768Z,19.21
2022-08-25T01:31:38.705Z,19.23
2022-08-25T01:32:38.679Z,19.21
2022-08-25T01:33:38.647Z,19.21
2022-08-25T01:34:38.644Z,19.23
2022-08-25T01:35:38.625Z,19.23
2022-08-25T01:36:38.620Z,19.20
2022-08-25T01:37:38.626Z,19.17
2022-08-25T01:38:38.601Z,19.15
2022-08-25T01:39:38.587Z,19.13
2022-08-25T01:40:38.588Z,19.10
2022-08-25T01:41:38.565Z,19.06
2022-08-25T01:42:38.576Z,19.01
2022-08-25T01:43:38.550Z,18.99
2022-08-25T01:44:38.533Z,18.97
2022-08-25T01:45:38.529Z,18.97
2022-08-25T01:46:38.582Z,18.95
2022-08-25T01:47:38.592Z,18.94
2022-08-25T01:48:38.516Z,18.94
2022-08-25T01:49:38.485Z,18.92
2022-08-25T01:50:38.470Z,18.90
2022-08-25T01:51:38.464Z,18.90
2022-08-25T01:52:38.449Z,18.90
2022-08-25T01:53:38.463Z,18.90
2022-08-25T01:54:38.440Z,18.90
2022-08-25T01:55:38.426Z,18.84
2022-08-25T01:56:38.417Z,18.82
2022-08-25T01:57:38.401Z,18.77
2022-08-25T01:58:38.404Z,18.77
2022-08-25T01:59:38.380Z,18.74
2022-08-25T02:00:38.366Z,18.70
2022-08-25T02:01:38.431Z,18.68
2022-08-25T02:02:38.379Z,18.68
2022-08-25T02:03:38.361Z,18.67
2022-08-25T02:04:38.359Z,18.67
2022-08-25T02:05:38.318Z,18.64
2022-08-25T02:06:38.302Z,18.61
2022-08-25T02:07:38.298Z,18.61
2022-08-25T02:08:38.307Z,18.59
2022-08-25T02:09:38.278Z,18.61
2022-08-25T02:10:38.262Z,18.61
2022-08-25T02:11:38.253Z,18.61
2022-08-25T02:12:38.239Z,18.62
2022-08-25T02:13:38.251Z,18.62
2022-08-25T02:14:38.224Z,18.62
2022-08-25T02:15:38.227Z,18.64
2022-08-25T02:16:38.322Z,18.67
2022-08-25T02:17:38.192Z,18.65
2022-08-25T02:18:38.193Z,18.67
2022-08-25T02:19:38.169Z,18.70
2022-08-25T02:20:38.154Z,18.72
2022-08-25T02:21:38.149Z,18.73
2022-08-25T02:22:38.134Z,18.72
2022-08-25T02:23:38.152Z,18.74
2022-08-25T02:24:38.113Z,18.74
2022-08-25T02:25:38.108Z,18.77
2022-08-25T02:26:38.110Z,18.79
2022-08-25T02:27:38.085Z,18.80
2022-08-25T02:28:38.089Z,18.80
2022-08-25T02:29:38.066Z,18.80
2022-08-25T02:30:38.173Z,18.80
2022-08-25T02:31:38.045Z,18.80
2022-08-25T02:32:38.033Z,18.80
2022-08-25T02:33:38.045Z,18.82
2022-08-25T02:34:38.025Z,18.80
2022-08-25T02:35:38.002Z,18.79
2022-08-25T02:36:37.994Z,18.80
2022-08-25T02:37:37.983Z,18.79
2022-08-25T02:38:38.012Z,18.77
2022-08-25T02:39:37.961Z,18.76
2022-08-25T02:40:37.951Z,18.76
2022-08-25T02:41:37.941Z,18.74
2022-08-25T02:42:37.928Z,18.74
2022-08-25T02:43:37.940Z,18.73
2022-08-25T02:44:37.919Z,18.72
2022-08-25T02:45:37.957Z,18.70
2022-08-25T02:46:37.891Z,18.70
2022-08-25T02:47:37.877Z,18.68
2022-08-25T02:48:37.917Z,18.68
2022-08-25T02:49:37.857Z,18.65
2022-08-25T02:50:37.843Z,18.65
2022-08-25T02:51:37.835Z,18.64
2022-08-25T02:52:37.820Z,18.62
2022-08-25T02:53:37.834Z,18.62
2022-08-25T02:54:37.803Z,18.59
2022-08-25T02:55:37.793Z,18.58
2022-08-25T02:56:37.780Z,18.59
2022-08-25T02:57:37.774Z,18.61
2022-08-25T02:58:37.779Z,18.59
2022-08-25T02:59:37.789Z,18.62
2022-08-25T03:00:37.738Z,18.59
2022-08-25T03:01:37.784Z,18.61
2022-08-25T03:02:37.719Z,18.59
2022-08-25T03:03:39.533Z,18.59
2022-08-25T03:04:37.722Z,18.58
2022-08-25T03:05:37.690Z,18.58
2022-08-25T03:06:37.675Z,18.57
2022-08-25T03:07:37.673Z,18.55
2022-08-25T03:08:37.676Z,18.55
2022-08-25T03:09:38.195Z,18.52
2022-08-25T03:10:37.634Z,18.52
2022-08-25T03:11:37.633Z,18.50
2022-08-25T03:12:37.612Z,18.47
2022-08-25T03:13:37.656Z,18.47
2022-08-25T03:14:37.596Z,18.47
2022-08-25T03:15:37.588Z,18.49
2022-08-25T03:16:37.678Z,18.47
2022-08-25T03:17:37.566Z,18.47
2022-08-25T03:18:37.707Z,18.47
2022-08-25T03:19:37.543Z,18.46
2022-08-25T03:20:37.528Z,18.46
2022-08-25T03:21:37.523Z,18.46
2022-08-25T03:22:37.507Z,18.46
2022-08-25T03:23:37.545Z,18.47
2022-08-25T03:24:37.485Z,18.46
2022-08-25T03:25:37.481Z,18.46
2022-08-25T03:26:37.466Z,18.44
2022-08-25T03:27:37.461Z,18.44
2022-08-25T03:28:37.460Z,18.43
2022-08-25T03:29:37.440Z,18.44
2022-08-25T03:30:37.470Z,18.44
2022-08-25T03:31:37.483Z,18.42
2022-08-25T03:32:37.401Z,18.43
2022-08-25T03:33:37.415Z,18.43
2022-08-25T03:34:37.382Z,18.43
2022-08-25T03:35:37.376Z,18.40
2022-08-25T03:36:37.362Z,18.40
2022-08-25T03:37:37.357Z,18.40
2022-08-25T03:38:37.355Z,18.39
2022-08-25T03:39:37.332Z,18.37
2022-08-25T03:40:37.320Z,18.37
2022-08-25T03:41:37.313Z,18.36
2022-08-25T03:42:37.298Z,18.34
2022-08-25T03:43:37.308Z,18.33
2022-08-25T03:44:37.276Z,18.34
2022-08-25T03:45:37.295Z,18.34
2022-08-25T03:46:37.256Z,18.36
2022-08-25T03:47:37.249Z,18.34
2022-08-25T03:48:37.255Z,18.34
2022-08-25T03:49:37.229Z,18.34
2022-08-25T03:50:37.216Z,18.34
2022-08-25T03:51:37.208Z,18.33
2022-08-25T03:52:42.251Z,18.34
2022-08-25T03:53:37.211Z,18.34
2022-08-25T03:54:37.175Z,18.33
2022-08-25T03:55:37.166Z,18.34
2022-08-25T03:56:37.152Z,18.34
2022-08-25T03:57:37.148Z,18.31
2022-08-25T03:58:37.153Z,18.33
2022-08-25T03:59:37.124Z,18.33
2022-08-25T04:00:37.107Z,18.34
2022-08-25T04:01:37.144Z,18.29
2022-08-25T04:02:37.170Z,18.31
2022-08-25T04:03:37.099Z,18.31
2022-08-25T04:04:37.069Z,18.28
2022-08-25T04:05:37.060Z,18.28
2022-08-25T04:06:37.045Z,18.28
2022-08-25T04:07:37.039Z,18.29
2022-08-25T04:08:37.044Z,18.28
2022-08-25T04:09:37.054Z,18.28
2022-08-25T04:10:37.002Z,18.27
2022-08-25T04:11:36.997Z,18.27
2022-08-25T04:12:36.982Z,18.25
2022-08-25T04:13:36.992Z,18.27
2022-08-25T04:14:36.961Z,18.27
2022-08-25T04:15:36.958Z,18.27
2022-08-25T04:16:36.990Z,18.27
2022-08-25T04:17:36.936Z,18.28
2022-08-25T04:18:36.939Z,18.27
2022-08-25T04:19:36.915Z,18.28
2022-08-25T04:20:36.900Z,18.25
2022-08-25T04:21:36.893Z,18.27
2022-08-25T04:22:36.984Z,18.28
2022-08-25T04:23:36.889Z,18.28
2022-08-25T04:24:36.858Z,18.28
2022-08-25T04:25:36.850Z,18.29
2022-08-25T04:26:36.835Z,18.28
2022-08-25T04:27:36.831Z,18.27
2022-08-25T04:28:36.839Z,18.27
2022-08-25T04:29:36.807Z,18.25
2022-08-25T04:30:36.795Z,18.21
2022-08-25T04:31:36.838Z,18.18
2022-08-25T04:32:36.774Z,18.17
2022-08-25T04:33:36.769Z,18.13
2022-08-25T04:34:36.768Z,18.12
2022-08-25T04:35:36.748Z,18.15
2022-08-25T04:36:36.733Z,18.13
2022-08-25T04:37:36.727Z,18.13
2022-08-25T04:38:36.715Z,18.13
2022-08-25T04:39:36.724Z,18.12
2022-08-25T04:40:36.735Z,18.12
2022-08-25T04:41:36.689Z,18.10
2022-08-25T04:42:36.681Z,18.12
2022-08-25T04:43:36.661Z,18.10
2022-08-25T04:44:36.665Z,18.09
2022-08-25T04:45:36.680Z,18.07
2022-08-25T04:46:36.627Z,18.04
2022-08-25T04:47:36.623Z,18.03
2022-08-25T04:48:36.604Z,18.00
2022-08-25T04:49:36.618Z,17.99
2022-08-25T04:50:36.592Z,17.97
2022-08-25T04:51:36.579Z,17.95
2022-08-25T04:52:36.563Z,17.95
2022-08-25T04:53:36.556Z,17.95
2022-08-25T04:54:37.364Z,17.95
2022-08-25T04:55:36.536Z,17.94
2022-08-25T04:56:36.522Z,17.94
2022-08-25T04:57:36.514Z,17.94
2022-08-25T04:58:36.519Z,17.95
2022-08-25T04:59:36.512Z,17.95
2022-08-25T05:00:36.537Z,17.97
2022-08-25T05:01:37.111Z,17.95
2022-08-25T05:02:36.471Z,17.99
2022-08-25T05:03:36.454Z,17.95
2022-08-25T05:04:36.511Z,17.94
2022-08-25T05:05:36.431Z,17.92
2022-08-25T05:06:36.418Z,17.92
2022-08-25T05:07:36.411Z,17.89
2022-08-25T05:08:36.398Z,17.87
2022-08-25T05:09:36.412Z,17.82
2022-08-25T05:10:36.375Z,17.81
2022-08-25T05:11:36.373Z,17.74
2022-08-25T05:12:36.358Z,17.76
2022-08-25T05:13:36.346Z,17.71
2022-08-25T05:14:36.350Z,17.71
2022-08-25T05:15:36.327Z,17.71
2022-08-25T05:16:36.392Z,17.74
2022-08-25T05:17:36.304Z,17.73
2022-08-25T05:18:36.293Z,17.74
2022-08-25T05:19:36.303Z,17.74
2022-08-25T05:20:36.269Z,17.78
2022-08-25T05:21:36.262Z,17.76
2022-08-25T05:22:36.247Z,17.81
2022-08-25T05:23:36.239Z,17.79
2022-08-25T05:24:36.241Z,17.81
2022-08-25T05:25:36.219Z,17.81
2022-08-25T05:26:36.222Z,17.84
2022-08-25T05:27:36.213Z,17.84
2022-08-25T05:28:36.229Z,17.87
2022-08-25T05:29:36.204Z,17.87
2022-08-25T05:30:36.162Z,17.88
2022-08-25T05:31:41.013Z,17.88
2022-08-25T05:32:36.148Z,17.92
2022-08-25T05:33:36.136Z,17.95
2022-08-25T05:34:36.139Z,18.00
2022-08-25T05:35:36.115Z,18.00
2022-08-25T05:36:36.144Z,18.04
2022-08-25T05:37:36.098Z,18.06
2022-08-25T05:38:36.081Z,18.07
2022-08-25T05:39:36.091Z,18.12
2022-08-25T05:40:36.080Z,18.15
2022-08-25T05:41:36.089Z,18.18
2022-08-25T05:42:36.040Z,18.19
2022-08-25T05:43:36.044Z,18.21
2022-08-25T05:44:36.038Z,18.24
2022-08-25T05:45:36.111Z,18.27
2022-08-25T05:46:36.623Z,18.29
2022-08-25T05:47:36.024Z,18.36
2022-08-25T05:48:35.978Z,18.39
2022-08-25T05:49:35.990Z,18.42
2022-08-25T05:50:35.954Z,18.46
2022-08-25T05:51:35.952Z,18.46
2022-08-25T05:52:35.936Z,18.54
2022-08-25T05:53:35.929Z,18.54
2022-08-25T05:54:35.935Z,18.59
2022-08-25T05:55:35.915Z,18.61
2022-08-25T05:56:35.893Z,18.67
2022-08-25T05:57:35.885Z,18.68
2022-08-25T05:58:35.877Z,18.77
2022-08-25T05:59:35.877Z,18.82
2022-08-25T06:00:35.856Z,18.90
2022-08-25T06:01:35.844Z,18.98
2022-08-25T06:02:35.835Z,19.10
2022-08-25T06:03:35.860Z,19.25
2022-08-25T06:04:39.603Z,19.40
2022-08-25T06:05:35.805Z,19.53
2022-08-25T06:06:35.790Z,19.65
2022-08-25T06:07:35.779Z,19.78
2022-08-25T06:08:35.768Z,19.88
2022-08-25T06:09:35.771Z,20.00
2022-08-25T06:10:35.749Z,20.13
2022-08-25T06:11:35.731Z,20.25
2022-08-25T06:12:35.731Z,20.42
2022-08-25T06:13:35.714Z,20.56
2022-08-25T06:14:35.723Z,20.71
2022-08-25T06:15:35.691Z,20.86
2022-08-25T06:16:35.838Z,21.01
2022-08-25T06:17:35.671Z,21.20
2022-08-25T06:18:35.666Z,21.38
2022-08-25T06:19:35.690Z,21.51
2022-08-25T06:20:35.646Z,21.63
2022-08-25T06:21:35.630Z,21.71
2022-08-25T06:22:35.624Z,21.81
2022-08-25T06:23:35.609Z,21.94
2022-08-25T06:24:35.618Z,22.06
2022-08-25T06:25:35.589Z,22.14
2022-08-25T06:26:35.584Z,22.28
2022-08-25T06:27:35.565Z,22.38
2022-08-25T06:28:35.584Z,22.52
2022-08-25T06:29:35.565Z,22.62
2022-08-25T06:30:35.537Z,22.78
2022-08-25T06:31:35.546Z,22.92
2022-08-25T06:32:35.521Z,23.05
2022-08-25T06:33:35.514Z,23.17
2022-08-25T06:34:35.516Z,23.31
2022-08-25T06:35:35.485Z,23.43
2022-08-25T06:36:35.478Z,23.55
2022-08-25T06:37:35.463Z,23.62
2022-08-25T06:38:35.458Z,23.71
2022-08-25T06:39:35.458Z,23.76
2022-08-25T06:40:35.537Z,23.82
2022-08-25T06:41:36.997Z,23.85
2022-08-25T06:42:35.421Z,23.86
2022-08-25T06:43:35.404Z,23.87
2022-08-25T06:44:35.414Z,23.95
2022-08-25T06:45:35.380Z,24.02
2022-08-25T06:46:36.455Z,24.08
2022-08-25T06:47:35.359Z,24.14
2022-08-25T06:48:35.353Z,24.19
2022-08-25T06:49:36.238Z,24.23
2022-08-25T06:50:35.338Z,24.22
2022-08-25T06:51:35.319Z,24.27
2022-08-25T06:52:35.313Z,24.32
2022-08-25T06:53:35.314Z,24.31
2022-08-25T06:54:35.299Z,24.38
2022-08-25T06:55:35.284Z,24.37
2022-08-25T06:56:35.270Z,24.34
2022-08-25T06:57:35.257Z,24.38
2022-08-25T06:58:35.277Z,24.39
2022-08-25T06:59:35.238Z,24.44
2022-08-25T07:00:35.258Z,24.56
2022-08-25T07:01:35.332Z,24.61
2022-08-25T07:02:35.671Z,24.76
2022-08-25T07:03:35.205Z,24.80
2022-08-25T07:04:35.205Z,24.83
2022-08-25T07:05:43.526Z,24.85
2022-08-25T07:06:35.174Z,24.87
2022-08-25T07:07:43.773Z,24.92
2022-08-25T07:08:35.155Z,24.94
2022-08-25T07:09:38.638Z,25.02
2022-08-25T07:10:35.124Z,25.10
2022-08-25T07:11:35.110Z,25.25
2022-08-25T07:12:35.105Z,25.39
2022-08-25T07:13:35.090Z,25.46
2022-08-25T07:14:35.099Z,25.52
2022-08-25T07:15:35.066Z,25.61
2022-08-25T07:16:35.137Z,25.77
2022-08-25T07:17:35.085Z,25.90
2022-08-25T07:18:35.041Z,26.01
2022-08-25T07:19:35.044Z,26.09
2022-08-25T07:20:35.018Z,26.22
2022-08-25T07:21:35.735Z,26.28
2022-08-25T07:22:35.001Z,26.42
2022-08-25T07:23:34.992Z,26.55
2022-08-25T07:24:34.994Z,26.67
2022-08-25T07:25:34.964Z,26.65
2022-08-25T07:26:37.646Z,26.76
2022-08-25T07:27:34.945Z,26.89
2022-08-25T07:28:34.936Z,27.02
2022-08-25T07:29:34.939Z,27.16
2022-08-25T07:30:34.933Z,27.26
2022-08-25T07:31:35.061Z,27.35
2022-08-25T07:32:34.893Z,27.42
2022-08-25T07:33:34.881Z,27.46
2022-08-25T07:34:34.893Z,27.53
2022-08-25T07:35:37.594Z,27.62
2022-08-25T07:36:34.905Z,27.73
2022-08-25T07:37:50.299Z,27.82
2022-08-25T07:38:34.850Z,27.84
2022-08-25T07:39:34.840Z,27.86
2022-08-25T07:40:34.860Z,27.91
2022-08-25T07:41:34.801Z,27.95
2022-08-25T07:42:34.797Z,27.98
2022-08-25T07:43:34.807Z,27.98
2022-08-25T07:44:34.791Z,27.98
2022-08-25T07:45:34.755Z,27.96
2022-08-25T07:46:34.922Z,28.10
2022-08-25T07:47:34.736Z,28.22
2022-08-25T07:48:34.730Z,28.35
2022-08-25T07:49:35.989Z,28.41
2022-08-25T07:50:34.720Z,28.43
2022-08-25T07:51:34.696Z,28.51
2022-08-25T07:52:34.691Z,28.66
2022-08-25T07:53:34.679Z,28.75
2022-08-25T07:54:35.269Z,28.82
2022-08-25T07:55:34.658Z,28.77
2022-08-25T07:56:34.649Z,28.70
2022-08-25T07:57:34.638Z,28.70
2022-08-25T07:58:34.669Z,28.78
2022-08-25T07:59:39.275Z,28.70
2022-08-25T08:00:36.006Z,28.75
2022-08-25T08:01:34.635Z,28.73
2022-08-25T08:02:34.695Z,28.75
2022-08-25T08:03:50.257Z,28.70
2022-08-25T08:04:34.593Z,28.81
2022-08-25T08:05:34.555Z,28.88
2022-08-25T08:06:34.547Z,28.91
2022-08-25T08:07:41.947Z,29.06
2022-08-25T08:08:34.532Z,29.15
2022-08-25T08:09:34.538Z,29.16
2022-08-25T08:11:00.569Z,29.20
2022-08-25T08:11:34.503Z,29.15
2022-08-25T08:12:34.483Z,29.00
2022-08-25T08:13:38.031Z,29.06
2022-08-25T08:14:34.493Z,29.15
2022-08-25T08:15:34.451Z,29.11
2022-08-25T08:16:34.549Z,29.04
2022-08-25T08:17:34.443Z,28.96
2022-08-25T08:18:34.427Z,28.95
2022-08-25T08:19:34.431Z,28.96
2022-08-25T08:20:36.164Z,29.00
2022-08-25T08:21:34.397Z,29.03
2022-08-25T08:22:34.383Z,29.08
2022-08-25T08:23:34.372Z,29.20
2022-08-25T08:24:44.711Z,29.28
2022-08-25T08:25:34.363Z,29.35
2022-08-25T08:26:55.399Z,29.52
2022-08-25T08:27:34.337Z,29.70
2022-08-25T08:28:34.324Z,29.84
2022-08-25T08:29:34.331Z,30.00
2022-08-25T08:30:34.305Z,30.14
2022-08-25T08:31:34.344Z,30.18
2022-08-25T08:32:59.916Z,30.29
2022-08-25T08:33:34.277Z,30.37
2022-08-25T08:34:34.339Z,30.52
2022-08-25T08:35:34.250Z,30.61
2022-08-25T08:36:34.242Z,30.74
2022-08-25T08:37:34.230Z,30.84
2022-08-25T08:38:34.234Z,30.96
2022-08-25T08:39:34.225Z,31.06
2022-08-25T08:40:34.331Z,31.13
2022-08-25T08:41:54.273Z,31.12
2022-08-25T08:42:34.190Z,31.17
2022-08-25T08:43:34.171Z,31.18
2022-08-25T08:44:34.876Z,31.23
2022-08-25T08:45:35.420Z,31.15
2022-08-25T08:46:34.217Z,31.04
2022-08-25T08:47:34.133Z,31.02
2022-08-25T08:48:34.119Z,30.90
2022-08-25T08:49:34.106Z,30.83
2022-08-25T08:50:34.198Z,30.80
2022-08-25T08:51:34.088Z,30.84
2022-08-25T08:52:34.079Z,30.87
2022-08-25T08:53:34.420Z,30.96
2022-08-25T08:54:34.339Z,31.06
2022-08-25T08:55:34.087Z,31.09
2022-08-25T08:56:34.086Z,31.23
2022-08-25T08:57:34.026Z,31.33
2022-08-25T08:58:34.028Z,31.38
2022-08-25T08:59:34.011Z,31.43
2022-08-25T09:00:34.019Z,31.53
2022-08-25T09:01:34.021Z,31.65
2022-08-25T09:02:39.119Z,31.61
2022-08-25T09:03:34.028Z,31.49
2022-08-25T09:04:34.707Z,31.38
2022-08-25T09:05:37.234Z,31.28
2022-08-25T09:06:33.948Z,31.05
2022-08-25T09:07:33.950Z,31.09
2022-08-25T09:08:33.925Z,31.15
2022-08-25T09:09:35.766Z,31.27
2022-08-25T09:10:34.344Z,31.30
2022-08-25T09:11:33.889Z,31.28
2022-08-25T09:12:33.882Z,31.28
2022-08-25T09:13:33.881Z,31.30
2022-08-25T09:14:33.863Z,31.36
2022-08-25T09:15:40.993Z,31.50
2022-08-25T09:16:34.796Z,31.62
2022-08-25T09:17:33.851Z,31.75
2022-08-25T09:18:35.858Z,31.84
2022-08-25T09:19:33.815Z,31.91
2022-08-25T09:20:33.819Z,31.93
2022-08-25T09:21:33.789Z,32.02
2022-08-25T09:22:36.233Z,32.14
2022-08-25T09:23:33.771Z,32.15
2022-08-25T09:24:33.768Z,32.20
2022-08-25T09:25:52.636Z,32.18
2022-08-25T09:26:33.750Z,32.15
2022-08-25T09:27:33.732Z,32.20
2022-08-25T09:28:33.737Z,32.22
2022-08-25T09:29:33.787Z,32.18
2022-08-25T09:30:33.705Z,32.17
2022-08-25T09:31:33.714Z,32.07
2022-08-25T09:32:33.685Z,31.96
2022-08-25T09:33:35.484Z,31.88
2022-08-25T09:34:33.708Z,31.80
2022-08-25T09:35:33.648Z,31.65
2022-08-25T09:36:37.467Z,31.64
2022-08-25T09:37:33.629Z,31.65
2022-08-25T09:38:33.623Z,31.72
2022-08-25T09:39:33.628Z,31.82
2022-08-25T09:40:33.651Z,31.96
2022-08-25T09:41:33.589Z,32.05
2022-08-25T09:42:33.581Z,32.15
2022-08-25T09:43:33.569Z,32.21
2022-08-25T09:44:33.582Z,32.30
2022-08-25T09:45:33.551Z,32.42
2022-08-25T09:46:33.631Z,32.47
2022-08-25T09:47:33.527Z,32.49
2022-08-25T09:48:36.592Z,32.36
2022-08-25T09:49:33.532Z,32.44
2022-08-25T09:50:35.074Z,32.55
2022-08-25T09:51:38.273Z,32.64
2022-08-25T09:52:33.492Z,32.62
2022-08-25T09:53:33.869Z,32.67
2022-08-25T09:54:44.054Z,32.80
2022-08-25T09:55:33.454Z,32.84
2022-08-25T09:56:33.463Z,32.84
2022-08-25T09:57:33.427Z,32.80
2022-08-25T09:58:33.422Z,32.74
2022-08-25T09:59:34.973Z,32.70
2022-08-25T10:00:33.408Z,32.73
2022-08-25T10:01:34.639Z,32.80
2022-08-25T10:02:33.382Z,32.79
2022-08-25T10:03:36.792Z,32.57
2022-08-25T10:04:33.378Z,32.33
2022-08-25T10:05:33.408Z,32.22
2022-08-25T10:06:33.342Z,32.11
2022-08-25T10:07:33.329Z,31.95
2022-08-25T10:08:33.324Z,31.79
2022-08-25T10:09:33.325Z,31.55
2022-08-25T10:10:33.306Z,31.48
2022-08-25T10:11:33.291Z,31.39
2022-08-25T10:12:33.288Z,31.43
2022-08-25T10:13:33.269Z,31.46
2022-08-25T10:14:33.260Z,31.50
2022-08-25T10:15:33.375Z,31.55
2022-08-25T10:16:36.440Z,31.64
2022-08-25T10:17:33.633Z,31.65
2022-08-25T10:18:33.221Z,31.70
2022-08-25T10:19:33.214Z,31.73
2022-08-25T10:20:35.302Z,31.82
2022-08-25T10:21:33.197Z,31.88
2022-08-25T10:22:33.181Z,31.93
2022-08-25T10:23:33.173Z,32.02
2022-08-25T10:24:33.159Z,31.92
2022-08-25T10:25:33.171Z,31.84
2022-08-25T10:26:35.045Z,31.79
2022-08-25T10:27:33.132Z,31.72
2022-08-25T10:28:33.119Z,31.62
2022-08-25T10:29:33.155Z,31.36
2022-08-25T10:30:33.208Z,31.23
2022-08-25T10:31:33.133Z,31.15
2022-08-25T10:32:33.080Z,31.11
2022-08-25T10:33:33.073Z,31.13
2022-08-25T10:34:33.057Z,30.98
2022-08-25T10:35:33.074Z,30.98
2022-08-25T10:36:33.056Z,31.02
2022-08-25T10:37:33.288Z,31.01
2022-08-25T10:38:36.085Z,30.96
2022-08-25T10:39:36.509Z,30.90
2022-08-25T10:40:33.032Z,30.89
2022-08-25T10:41:32.998Z,30.93
2022-08-25T10:42:33.929Z,30.91
2022-08-25T10:43:32.974Z,30.86
2022-08-25T10:44:32.959Z,30.76
2022-08-25T10:45:32.986Z,30.76
2022-08-25T10:46:32.999Z,30.87
2022-08-25T10:47:32.934Z,30.98
2022-08-25T10:48:32.946Z,31.04
2022-08-25T10:49:32.914Z,31.06
2022-08-25T10:50:32.931Z,31.12
2022-08-25T10:51:32.890Z,31.23
2022-08-25T10:52:32.874Z,31.42
2022-08-25T10:53:32.878Z,31.50
2022-08-25T10:54:32.885Z,31.48
2022-08-25T10:55:32.867Z,31.40
2022-08-25T10:56:32.842Z,31.30
2022-08-25T10:57:33.438Z,31.28
2022-08-25T10:58:32.817Z,31.35
2022-08-25T10:59:32.814Z,31.35
2022-08-25T11:00:33.372Z,31.28
2022-08-25T11:01:38.924Z,31.13
2022-08-25T11:02:32.783Z,31.02
2022-08-25T11:03:35.353Z,31.04
2022-08-25T11:04:32.754Z,31.09
2022-08-25T11:05:32.838Z,31.09
2022-08-25T11:06:32.736Z,31.15
2022-08-25T11:07:32.729Z,31.13
2022-08-25T11:08:32.719Z,31.11
2022-08-25T11:09:32.715Z,30.98
2022-08-25T11:10:32.725Z,30.89
2022-08-25T11:11:32.696Z,30.87
2022-08-25T11:12:32.688Z,30.90
2022-08-25T11:13:32.676Z,30.93
2022-08-25T11:14:34.704Z,30.93
2022-08-25T11:15:33.445Z,30.93
2022-08-25T11:16:32.689Z,30.84
2022-08-25T11:17:32.634Z,30.71
2022-08-25T11:18:32.620Z,30.71
2022-08-25T11:19:32.713Z,30.72
2022-08-25T11:20:32.617Z,30.74
2022-08-25T11:21:32.594Z,30.72
2022-08-25T11:22:32.600Z,30.71
2022-08-25T11:23:32.572Z,30.75
2022-08-25T11:24:32.576Z,30.78
2022-08-25T11:25:32.554Z,30.84
2022-08-25T11:26:36.134Z,30.89
2022-08-25T11:27:32.537Z,30.93
2022-08-25T11:28:33.056Z,31.01
2022-08-25T11:29:32.537Z,31.08
2022-08-25T11:30:32.557Z,31.13
2022-08-25T11:31:32.496Z,31.17
2022-08-25T11:32:32.479Z,31.12
2022-08-25T11:33:32.474Z,31.12
2022-08-25T11:34:32.480Z,31.15
2022-08-25T11:35:32.456Z,31.17
2022-08-25T11:36:32.445Z,31.13
2022-08-25T11:37:32.431Z,31.20
2022-08-25T11:38:32.424Z,31.18
2022-08-25T11:39:34.668Z,31.20
2022-08-25T11:40:32.475Z,31.24
2022-08-25T11:41:32.392Z,31.28
2022-08-25T11:42:32.378Z,31.27
2022-08-25T11:43:35.855Z,31.21
2022-08-25T11:44:32.355Z,31.15
2022-08-25T11:45:32.366Z,31.01
2022-08-25T11:46:32.377Z,30.98
2022-08-25T11:47:32.335Z,30.94
2022-08-25T11:48:32.319Z,30.99
2022-08-25T11:49:32.310Z,31.02
2022-08-25T11:50:32.324Z,31.04
2022-08-25T11:51:33.640Z,31.02
2022-08-25T11:52:32.292Z,31.05
2022-08-25T11:53:32.274Z,31.08
2022-08-25T11:54:32.258Z,31.08
2022-08-25T11:55:32.268Z,31.11
2022-08-25T11:56:32.671Z,31.15
2022-08-25T11:57:32.232Z,31.20
2022-08-25T11:58:32.222Z,31.26
2022-08-25T11:59:32.211Z,31.31
2022-08-25T12:00:32.218Z,31.35
2022-08-25T12:01:32.191Z,31.35
2022-08-25T12:02:32.178Z,31.33
2022-08-25T12:03:32.174Z,31.31
2022-08-25T12:04:32.258Z,31.35
2022-08-25T12:05:32.272Z,31.38
2022-08-25T12:06:32.135Z,31.45
2022-08-25T12:07:32.132Z,31.43
2022-08-25T12:08:32.118Z,31.49
2022-08-25T12:09:32.112Z,31.53
2022-08-25T12:10:32.130Z,31.50
2022-08-25T12:11:32.091Z,31.54
2022-08-25T12:12:32.082Z,31.48
2022-08-25T12:13:32.090Z,31.40
2022-08-25T12:14:32.059Z,31.38
2022-08-25T12:15:32.071Z,31.38
2022-08-25T12:16:32.139Z,31.40
2022-08-25T12:17:32.031Z,31.42
2022-08-25T12:18:32.018Z,31.45
2022-08-25T12:19:32.011Z,31.39
2022-08-25T12:20:32.019Z,31.33
2022-08-25T12:21:31.992Z,31.35
2022-08-25T12:22:32.012Z,31.40
2022-08-25T12:23:31.978Z,31.49
2022-08-25T12:24:31.962Z,31.62
2022-08-25T12:25:31.980Z,31.77
2022-08-25T12:26:31.936Z,31.92
2022-08-25T12:27:33.540Z,32.03
2022-08-25T12:28:34.908Z,32.14
2022-08-25T12:29:31.913Z,32.24
2022-08-25T12:30:31.966Z,32.39
2022-08-25T12:31:32.745Z,32.42
2022-08-25T12:32:31.875Z,32.47
2022-08-25T12:33:31.871Z,32.58
2022-08-25T12:34:31.855Z,32.71
2022-08-25T12:35:31.876Z,32.85
2022-08-25T12:36:31.842Z,32.98
2022-08-25T12:37:31.828Z,33.17
2022-08-25T12:38:31.820Z,33.36
2022-08-25T12:39:31.828Z,33.52
2022-08-25T12:40:31.855Z,33.70
2022-08-25T12:41:33.753Z,33.87
2022-08-25T12:42:31.773Z,33.92
2022-08-25T12:43:33.979Z,33.90
2022-08-25T12:44:31.777Z,33.83
2022-08-25T12:45:31.759Z,33.86
2022-08-25T12:46:31.735Z,33.89
2022-08-25T12:47:31.736Z,33.98
2022-08-25T12:48:31.714Z,34.01
2022-08-25T12:49:31.743Z,34.07
2022-08-25T12:50:31.698Z,34.22
2022-08-25T12:51:31.694Z,34.26
2022-08-25T12:52:31.678Z,34.17